createdAt,value
2022-10-19T00:08:25.026Z,8.60
2022-10-19T00:18:52.375Z,7.00
2022-10-19T00:29:20.058Z,8.10
2022-10-19T00:50:15.741Z,6.60
2022-10-19T01:00:43.268Z,8.10
2022-10-19T01:11:24.215Z,7.70
2022-10-19T01:22:01.403Z,19.00
2022-10-19T01:32:37.754Z,12.60
2022-10-19T01:43:11.277Z,11.00
2022-10-19T01:53:45.739Z,10.00
2022-10-19T02:04:15.553Z,15.50
2022-10-19T02:14:47.166Z,14.60
2022-10-19T02:25:15.350Z,15.00
2022-10-19T02:35:43.154Z,12.70
2022-10-19T02:46:17.125Z,14.50
2022-10-19T02:56:44.417Z,16.20
2022-10-19T03:07:12.905Z,12.60
2022-10-19T03:17:40.211Z,12.40
2022-10-19T03:28:07.472Z,11.30
2022-10-19T03:38:34.751Z,14.80
2022-10-19T03:49:02.296Z,15.10
2022-10-19T03:59:29.697Z,14.50
2022-10-19T04:09:57.054Z,15.60
2022-10-19T04:20:24.329Z,15.30
2022-10-19T04:30:51.679Z,14.20
2022-10-19T04:41:21.248Z,16.60
2022-10-19T04:51:48.516Z,13.80
2022-10-19T05:02:15.826Z,16.60
2022-10-19T05:12:43.097Z,15.30
2022-10-19T05:23:10.428Z,16.50
2022-10-19T05:33:38.406Z,16.50
2022-10-19T05:54:32.394Z,16.20
2022-10-19T06:04:59.666Z,16.70
2022-10-19T06:15:26.990Z,19.50
2022-10-19T06:25:54.761Z,18.70
2022-10-19T06:36:24.728Z,16.00
2022-10-19T06:46:52.052Z,15.20
2022-10-19T06:57:19.422Z,19.70
2022-10-19T07:07:46.857Z,16.80
2022-10-19T07:18:14.262Z,16.10
2022-10-19T07:28:43.437Z,19.50
2022-10-19T07:39:10.972Z,15.90
2022-10-19T07:49:38.473Z,16.30
2022-10-19T08:00:07.378Z,18.80
2022-10-19T08:10:34.898Z,18.40
2022-10-19T08:21:04.786Z,11.50
2022-10-19T08:31:32.324Z,12.20
2022-10-19T08:42:06.924Z,7.40
2022-10-19T08:52:37.312Z,7.80
2022-10-19T09:03:17.626Z,5.80
2022-10-19T09:14:04.854Z,6.90
2022-10-19T09:24:43.960Z,6.20
2022-10-19T09:35:27.467Z,3.90
2022-10-19T09:45:58.505Z,3.80
2022-10-19T09:56:27.852Z,3.10
2022-10-19T10:06:57.712Z,2.90
2022-10-19T10:17:31.612Z,5.60
2022-10-19T10:28:02.091Z,2.90
2022-10-19T10:38:33.756Z,5.00
2022-10-19T10:49:03.629Z,5.20
2022-10-19T10:59:36.225Z,7.30
2022-10-19T11:10:13.822Z,6.00
2022-10-19T11:20:50.198Z,5.00
2022-10-19T11:31:23.516Z,6.00
2022-10-19T11:42:02.423Z,5.60
2022-10-19T11:52:40.478Z,4.50
2022-10-19T12:03:26.905Z,4.70
2022-10-19T12:13:58.467Z,5.20
2022-10-19T12:24:28.723Z,4.70
2022-10-19T12:35:05.014Z,5.00
2022-10-19T12:45:35.501Z,3.40
2022-10-19T12:56:06.456Z,4.40
2022-10-19T13:06:37.674Z,4.40
2022-10-19T13:17:05.778Z,1.80
2022-10-19T13:38:29.964Z,5.90
2022-10-19T13:49:20.607Z,3.70
2022-10-19T14:00:07.162Z,4.80
2022-10-19T14:10:56.227Z,3.90
2022-10-19T14:21:32.394Z,5.40
2022-10-19T14:32:01.448Z,7.00
2022-10-19T14:42:38.834Z,4.80
2022-10-19T14:53:20.595Z,3.20
2022-10-19T15:03:51.128Z,6.40
2022-10-19T15:14:22.066Z,5.30
2022-10-19T15:25:25.170Z,2.40
2022-10-19T15:35:52.733Z,5.20
2022-10-19T15:46:31.188Z,6.00
2022-10-19T15:56:59.743Z,6.30
2022-10-19T16:07:32.082Z,7.80
2022-10-19T16:18:01.456Z,12.60
2022-10-19T16:28:29.571Z,8.30
2022-10-19T16:38:56.990Z,8.30
2022-10-19T16:49:24.321Z,9.80
2022-10-19T17:10:27.204Z,9.80
2022-10-19T17:20:55.602Z,10.80
2022-10-19T17:31:23.175Z,10.80
2022-10-19T17:41:52.614Z,8.80
2022-10-19T17:52:19.904Z,9.40
2022-10-19T18:02:48.896Z,13.00
2022-10-19T18:13:16.410Z,9.10
2022-10-19T18:23:43.901Z,12.00
2022-10-19T18:34:16.020Z,10.80
2022-10-19T18:44:43.335Z,8.20
2022-10-19T18:55:11.713Z,11.90
2022-10-19T19:05:38.968Z,11.10
2022-10-19T19:16:07.978Z,9.40
2022-10-19T19:26:39.974Z,14.20
2022-10-19T19:37:10.345Z,11.90
2022-10-19T19:47:38.633Z,15.30
2022-10-19T19:58:05.979Z,11.60
2022-10-19T20:08:33.983Z,9.40
2022-10-19T20:39:55.815Z,10.50
2022-10-19T20:50:23.517Z,13.70
2022-10-19T21:00:50.719Z,13.00
2022-10-19T21:11:20.630Z,13.10
2022-10-19T21:21:49.932Z,11.30
2022-10-19T21:32:18.425Z,7.00
2022-10-19T21:42:46.229Z,11.30
2022-10-19T21:53:13.568Z,14.40
2022-10-19T22:03:41.004Z,21.10
2022-10-19T22:14:08.361Z,15.40
2022-10-19T22:24:35.842Z,16.50
2022-10-19T22:35:03.256Z,14.90
2022-10-19T22:45:30.773Z,13.90
2022-10-19T22:55:58.253Z,13.90
2022-10-19T23:06:25.701Z,13.00
2022-10-19T23:16:53.073Z,11.00
2022-10-19T23:27:21.246Z,14.40
2022-10-19T23:37:48.761Z,9.90
2022-10-19T23:48:16.059Z,10.80
2022-10-19T23:58:43.556Z,9.40
